• Join FlightAware (Why Join?)
  • Login
  • US Flag 
04:00PM EST


 

Airport Tracker/Info


-or-


 

Live Flight TrackerFlight Track Log ✈ JA-614J ✈ 09-Apr-2013 ✈ PGUM - RJAA / NRT

Flight Track Log - Related Links

Times and Time Zones

All times are in EDT time to prevent confusion due to time zone crossing. See the JA-614J flight status page for this flight to view local times or setup timezone preferences in your user account.

Time Position Orientation Groundspeed Altitude Reporting Facility
EDT Latitude Longitude Course Direction KTS MPH feet Rate Location/Type
01:38AM 13.4833 144.8000 44° Northeast 160 184 1,600  Level Guam Center
01:39AM 13.5167 144.8333 44° Northeast 190 219 3,800 1,980 Climbing Guam Center
01:40AM 13.5833 144.8167 346° North 270 311 5,600 2,640 Climbing Guam Center
01:41AM 13.6667 144.8000 349° North 290 334 9,200 2,820 Climbing Guam Center
01:42AM 13.7500 144.7833 349° North 310 357 11,300 1,920 Climbing Guam Center
01:43AM 13.8500 144.7500 342° North 380 437 13,100 2,280 Climbing Guam Center
01:44AM 13.9667 144.7167 345° North 400 460 15,900 2,700 Climbing Guam Center
01:45AM 14.0833 144.7000 352° North 430 495 18,600 2,280 Climbing Guam Center
01:46AM 14.2000 144.6667 345° North 440 506 20,600 1,920 Climbing Guam Center
01:47AM 14.3167 144.6333 345° North 460 529 22,500 1,980 Climbing Guam Center
01:48AM 14.4333 144.6000 345° North 470 541 24,600 2,040 Climbing Guam Center
01:49AM 14.5667 144.5667 346° North 470 541 26,600 1,980 Climbing Guam Center
01:50AM 14.6833 144.5333 345° North 490 564 28,600 1,860 Climbing Guam Center
01:51AM 14.8167 144.5167 353° North 490 564 30,400 1,800 Climbing Guam Center
01:52AM 14.9500 144.4667 340° North 490 564 32,200 1,800 Climbing Guam Center
01:53AM 15.0833 144.4333 346° North 490 564 34,100 1,860 Climbing Guam Center
01:54AM 15.2167 144.4167 353° North 470 541 36,000 900 Climbing Guam Center
01:55AM 15.3333 144.3833 345° North 460 529 36,000  Level Guam Center
01:56AM 15.4667 144.3500 346° North 460 529 36,000  Level Guam Center
01:57AM 15.5833 144.3167 345° North 460 529 36,000  Level Guam Center
01:58AM 15.7167 144.2833 346° North 460 529 36,000  Level Guam Center
01:59AM 15.8333 144.2500 345° North 460 529 36,000  Level Guam Center
02:00AM 15.9667 144.2167 346° North 460 529 36,000  Level Guam Center
02:01AM 16.0833 144.1833 345° North 460 529 36,000  Level Guam Center
02:02AM 16.2167 144.1500 347° North 460 529 36,000  Level Guam Center
02:03AM 16.3333 144.1167 345° North 470 541 36,000  Level Guam Center
02:04AM 16.4667 144.1000 353° North 470 541 36,000  Level Guam Center
02:05AM 16.5833 144.0500 338° Northwest 460 529 36,000  Level Guam Center
02:06AM 16.7167 144.0333 353° North 470 541 36,000  Level Guam Center
02:07AM 16.8500 144.0000 347° North 470 541 36,000  Level Guam Center
02:08AM 16.9667 143.9500 338° Northwest 460 529 36,000  Level Guam Center
02:09AM 17.1000 143.9333 353° North 460 529 36,000  Level Guam Center
02:10AM 17.2167 143.9000 345° North 460 529 36,000  Level Guam Center
02:11AM 17.3500 143.8667 347° North 470 541 36,000  Level Guam Center
02:13AM 17.5059 143.8355 349° North  Level FlightAware Approximate
02:20AM 18.3574 143.6372 347° North  Level FlightAware Approximate
02:21AM 18.4795 143.6074 347° North  Level FlightAware Approximate
02:22AM 18.6016 143.5777 347° North  Level FlightAware Approximate
02:23AM 18.7237 143.5478 347° North  Level FlightAware Approximate
02:24AM 18.8458 143.5180 347° North  Level FlightAware Approximate
02:25AM 18.9679 143.4881 347° North  Level FlightAware Approximate
02:26AM 19.0900 143.4581 347° North  Level FlightAware Approximate
02:27AM 19.2121 143.4281 347° North  Level FlightAware Approximate
02:28AM 19.3341 143.3981 347° North  Level FlightAware Approximate
02:29AM 19.4562 143.3680 347° North  Level FlightAware Approximate
02:30AM 19.5783 143.3378 347° North  Level FlightAware Approximate
02:31AM 19.7003 143.3077 347° North  Level FlightAware Approximate
02:32AM 19.8224 143.2775 347° North  Level FlightAware Approximate
02:33AM 19.9445 143.2472 347° North  Level FlightAware Approximate
02:34AM 20.0665 143.2169 347° North  Level FlightAware Approximate
02:35AM 20.1885 143.1865 347° North  Level FlightAware Approximate
02:35AM 20.3167 143.1667 346° North 454 522 36,000  Level Oakland Oceanic (ODAPS)
02:36AM 20.3106 143.1561 347° North  Level FlightAware Approximate
02:37AM 20.4326 143.1256 347° North  Level FlightAware Approximate
02:38AM 20.5546 143.0951 347° North  Level FlightAware Approximate
02:39AM 20.6766 143.0646 347° North  Level FlightAware Approximate
02:40AM 20.7987 143.0340 347° North  Level FlightAware Approximate
02:41AM 21.0000 142.9833 348° North 454 522 36,000  Level FlightAware Transoceanic
02:42AM 21.1291 142.9535 348° North 454 522 36,000  Level FlightAware Transoceanic
02:43AM 21.2582 142.9237 348° North 454 522 36,000  Level FlightAware Transoceanic
02:44AM 21.3873 142.8938 348° North 454 522 36,000  Level FlightAware Transoceanic
02:45AM 21.5164 142.8638 348° North 454 522 36,000  Level FlightAware Transoceanic
02:46AM 21.6455 142.8338 348° North 454 522 36,000  Level FlightAware Transoceanic
02:47AM 21.7746 142.8038 348° North 454 522 36,000  Level FlightAware Transoceanic
02:48AM 21.9037 142.7736 348° North 454 522 36,000  Level FlightAware Transoceanic
02:49AM 22.0328 142.7435 348° North 454 522 36,000  Level FlightAware Transoceanic
02:50AM 22.1619 142.7132 348° North 454 522 36,000  Level FlightAware Transoceanic
02:51AM 22.2909 142.6830 348° North 454 522 36,000  Level FlightAware Transoceanic
02:52AM 22.4200 142.6526 348° North 454 522 36,000  Level FlightAware Transoceanic
02:53AM 22.5490 142.6222 348° North 454 522 36,000  Level FlightAware Transoceanic
02:54AM 22.6781 142.5918 348° North 454 522 36,000  Level FlightAware Transoceanic
02:55AM 22.8071 142.5612 348° North 454 522 36,000  Level FlightAware Transoceanic
02:56AM 22.9362 142.5307 348° North 454 522 36,000  Level FlightAware Transoceanic
02:57AM 23.0652 142.5000 348° North 454 522 36,000  Level FlightAware Transoceanic
02:58AM 23.1943 142.4694 348° North 454 522 36,000  Level FlightAware Transoceanic
02:59AM 23.3233 142.4386 348° North 454 522 36,000  Level FlightAware Transoceanic
03:00AM 23.4523 142.4078 348° North 454 522 36,000  Level FlightAware Transoceanic
03:01AM 23.5813 142.3770 348° North 454 522 36,000  Level FlightAware Transoceanic
03:02AM 23.7103 142.3460 348° North 454 522 36,000  Level FlightAware Transoceanic
03:03AM 23.8393 142.3150 348° North 454 522 36,000  Level FlightAware Transoceanic
03:04AM 23.9683 142.2840 348° North 454 522 36,000  Level FlightAware Transoceanic
03:05AM 24.0973 142.2529 348° North 454 522 36,000  Level FlightAware Transoceanic
03:06AM 24.2263 142.2217 348° North 454 522 36,000  Level FlightAware Transoceanic
03:07AM 24.3552 142.1905 348° North 454 522 36,000  Level FlightAware Transoceanic
03:08AM 24.4842 142.1592 348° North 454 522 36,000  Level FlightAware Transoceanic
03:09AM 24.6132 142.1278 348° North 454 522 36,000  Level FlightAware Transoceanic
03:10AM 24.7421 142.0964 348° North 454 522 36,000  Level FlightAware Transoceanic
03:11AM 24.8711 142.0649 347° North 454 522 36,000  Level FlightAware Transoceanic
03:12AM 24.9934 142.0349 347° North  Level FlightAware Approximate
03:13AM 25.1157 142.0049 347° North  Level FlightAware Approximate
03:14AM 25.1106 142.0104 349° North  Level FlightAware Approximate
03:15AM 25.2344 141.9847 349° North  Level FlightAware Approximate
03:16AM 25.3582 141.9589 349° North  Level FlightAware Approximate
03:17AM 25.4821 141.9331 349° North  Level FlightAware Approximate
03:18AM 25.6059 141.9072 349° North  Level FlightAware Approximate
03:19AM 25.7297 141.8813 349° North  Level FlightAware Approximate
03:20AM 25.8535 141.8553 349° North  Level FlightAware Approximate
03:21AM 25.9774 141.8292 349° North  Level FlightAware Approximate
03:22AM 26.1012 141.8031 349° North  Level FlightAware Approximate
03:23AM 26.2250 141.7769 349° North  Level FlightAware Approximate
03:24AM 26.3488 141.7507 349° North  Level FlightAware Approximate
03:25AM 26.4726 141.7245 349° North  Level FlightAware Approximate
03:26AM 26.5964 141.6982 349° North  Level FlightAware Approximate
03:27AM 26.7201 141.6718 349° North  Level FlightAware Approximate
03:28AM 26.8439 141.6453 349° North  Level FlightAware Approximate
03:29AM 26.9677 141.6188 349° North  Level FlightAware Approximate
03:30AM 27.0915 141.5923 349° North  Level FlightAware Approximate
03:31AM 27.2153 141.5657 349° North  Level FlightAware Approximate
03:32AM 27.3390 141.5390 349° North  Level FlightAware Approximate
03:33AM 27.4628 141.5123 349° North  Level FlightAware Approximate
03:34AM 27.5865 141.4855 349° North  Level FlightAware Approximate
03:35AM 27.7103 141.4586 349° North  Level FlightAware Approximate
03:36AM 27.8340 141.4317 349° North  Level FlightAware Approximate
03:37AM 27.9577 141.4047 349° North  Level FlightAware Approximate
03:38AM 28.0815 141.3777 349° North  Level FlightAware Approximate
03:39AM 28.2052 141.3506 349° North  Level FlightAware Approximate
03:40AM 28.3289 141.3234 349° North  Level FlightAware Approximate
03:41AM 28.4526 141.2962 349° North  Level FlightAware Approximate
03:42AM 28.5763 141.2689 349° North  Level FlightAware Approximate
03:43AM 28.7000 141.2415 349° North  Level FlightAware Approximate
03:44AM 28.8237 141.2141 349° North  Level FlightAware Approximate
03:45AM 28.9474 141.1866 349° North  Level FlightAware Approximate
03:46AM 29.0711 141.1591 349° North  Level FlightAware Approximate
03:47AM 29.1948 141.1315 349° North  Level FlightAware Approximate
03:48AM 29.3185 141.1038 349° North  Level FlightAware Approximate
03:49AM 29.4421 141.0760 349° North  Level FlightAware Approximate
03:50AM 29.5658 141.0482 349° North  Level FlightAware Approximate
03:51AM 29.6894 141.0203 349° North  Level FlightAware Approximate
03:52AM 29.8131 140.9924 349° North  Level FlightAware Approximate
03:53AM 29.9368 140.9644 349° North  Level FlightAware Approximate
03:54AM 30.0601 140.9349 348° North  Level FlightAware Approximate
03:55AM 30.1826 140.9040 348° North  Level FlightAware Approximate
03:56AM 30.3050 140.8730 348° North  Level FlightAware Approximate
03:57AM 30.4275 140.8420 348° North  Level FlightAware Approximate
03:58AM 30.5499 140.8108 348° North  Level FlightAware Approximate
03:59AM 30.6723 140.7796 348° North  Level FlightAware Approximate
04:00AM 30.7947 140.7484 348° North  Level FlightAware Approximate
04:01AM 30.9171 140.7170 348° North  Level FlightAware Approximate
04:02AM 31.0399 140.6899 348° North  Level FlightAware Approximate
04:03AM 31.1624 140.6589 348° North  Level FlightAware Approximate
04:04AM 31.2849 140.6278 348° North  Level FlightAware Approximate
04:05AM 31.4073 140.5966 348° North  Level FlightAware Approximate
04:06AM 31.5298 140.5653 348° North  Level FlightAware Approximate
04:07AM 31.6522 140.5340 348° North  Level FlightAware Approximate
04:08AM 31.7747 140.5025 348° North  Level FlightAware Approximate
04:09AM 31.8971 140.4710 348° North  Level FlightAware Approximate
04:10AM 32.0195 140.4394 348° North  Level FlightAware Approximate
04:11AM 32.1419 140.4077 348° North  Level FlightAware Approximate
04:12AM 32.2644 140.3759 348° North  Level FlightAware Approximate
04:13AM 32.3875 140.3483 350° North  Level FlightAware Approximate
04:14AM 32.5108 140.3223 350° North  Level FlightAware Approximate
04:14AM 32.5290 140.3130 351° North 448 516 36,000  Level FlightAware
04:15AM 32.6343 140.2967 351° North  Level FlightAware Approximate
04:15AM 32.6250 140.2890 348° North 441 507 36,000  Level FlightAware
04:15AM 32.7230 140.2640 348° North 441 507 36,000  Level FlightAware
04:16AM 32.7970 140.2450 348° North 448 516 36,000  Level FlightAware
04:17AM 32.8920 140.2210 348° North 431 496 36,000  Level FlightAware
04:17AM 32.9670 140.2020 348° North 431 496 36,000  Level FlightAware
04:18AM 33.0560 140.1790 348° North 431 496 36,000  Level FlightAware
04:19AM 33.1400 140.1570 348° North 429 494 36,000  Level FlightAware
04:19AM 33.2140 140.1380 348° North 429 494 36,000  Level FlightAware
04:20AM 33.3090 140.1140 348° North 429 494 36,000  Level FlightAware
04:21AM 33.3740 140.1020 351° North 439 505 36,000  Level FlightAware
04:22AM 33.4770 140.0880 354° North 450 518 36,000  Level FlightAware
04:22AM 33.5660 140.0770 354° North 439 505 36,000 -180 Level FlightAware
04:23AM 33.6760 140.0740 359° North 466 536 35,800 -900 Descending FlightAware
04:24AM 33.7630 140.0960 12° North 490 564 34,600 -2,760 Descending FlightAware
04:25AM 33.8690 140.1410 19° North 516 594 31,900 -2,640 Descending FlightAware
04:25AM 33.9410 140.1730 20° North 500 575 31,100 -1,680 Descending FlightAware
04:26AM 34.0390 140.2150 20° North 478 550 29,700 -1,680 Descending FlightAware
04:27AM 34.1370 140.2580 20° North 447 514 28,600 -1,680 Descending FlightAware
04:27AM 34.2110 140.2880 19° North 439 505 27,400 -2,280 Descending FlightAware
04:28AM 34.2980 140.3250 19° North 438 504 25,400 -2,520 Descending FlightAware
04:29AM 34.3780 140.3590 19° North 432 497 23,900 -2,280 Descending FlightAware
04:30AM 34.4940 140.4100 20° North 428 493 21,500 -2,160 Descending FlightAware
04:31AM 34.5770 140.4460 20° North 414 476 20,000 -1,980 Descending FlightAware
04:31AM 34.6610 140.4820 19° North 410 472 18,600 -1,980 Descending FlightAware
04:32AM 34.7350 140.5140 20° North 397 457 17,200 -1,980 Descending FlightAware
04:33AM 34.8120 140.5470 19° North 376 433 15,800 -1,800 Descending FlightAware
04:33AM 34.8710 140.5730 20° North 378 435 14,800 -1,740 Descending FlightAware
04:34AM 34.9420 140.6040 20° North 360 414 13,500 -1,920 Descending FlightAware
04:35AM 35.0110 140.6340 20° North 356 410 12,000 -1,560 Descending FlightAware
04:36AM 35.0850 140.6660 19° North 331 381 11,200 -540 Descending FlightAware
04:36AM 35.1390 140.6900 20° North 322 371 11,300 60 Climbing FlightAware
04:37AM 35.2020 140.7170 19° North 326 375 11,300 -120 Level FlightAware
04:38AM 35.2570 140.7390 18° North 314 361 11,200 -120 Descending FlightAware
04:38AM 35.2740 140.7410 North 304 350 11,200  Level FlightAware
04:39AM 35.3320 140.7300 351° North 297 342 11,200 60 Level FlightAware
04:39AM 35.3880 140.7210 353° North 290 334 11,300  Climbing FlightAware
04:41AM 35.4860 140.7050 352° North 279 321 11,200 -60 Descending FlightAware
04:41AM 35.5410 140.6950 352° North 277 319 11,200  Level FlightAware
04:42AM 35.5920 140.6810 347° North 265 305 11,200 -720 Level FlightAware
04:43AM 35.6400 140.6500 332° Northwest 255 293 10,200 -1,560 Descending FlightAware
04:43AM 35.6660 140.6340 333° Northwest 255 293 9,400 -1,980 Descending FlightAware
04:44AM 35.7000 140.6130 333° Northwest 254 292 8,400 -2,100 Descending FlightAware
04:44AM 35.7260 140.5960 332° Northwest 254 292 7,500 -1,860 Descending FlightAware
04:44AM 35.7530 140.5770 330° Northwest 248 285 6,700 -1,200 Descending FlightAware
04:45AM 35.7860 140.5540 331° Northwest 226 260 6,300 -660 Descending FlightAware
04:45AM 35.8060 140.5410 332° Northwest 203 234 6,100 -600 Descending FlightAware
04:46AM 35.8260 140.5280 332° Northwest 204 235 5,800 -1,200 Descending FlightAware
04:46AM 35.8560 140.5110 335° Northwest 178 205 4,900 -1,440 Descending FlightAware
04:47AM 35.8710 140.5020 334° Northwest 190 219 4,500 -720 Descending FlightAware
04:47AM 35.9010 140.4860 337° Northwest 196 226 4,200 -420 Descending FlightAware
04:48AM 35.9160 140.4710 321° Northwest 159 183 4,100 -600 Descending FlightAware
04:48AM 35.9260 140.4450 295° West 162 186 3,700 -900 Descending FlightAware
04:49AM 35.9360 140.4200 296° West 161 185 3,200 -1,080 Descending FlightAware
04:49AM 35.9390 140.4030 282° West 151 174 2,800 -1,140 Descending FlightAware
04:50AM 35.9410 140.3760 275° West 156 180 2,200 -660 Descending FlightAware
04:50AM 35.9420 140.3400 272° West 155 178 2,000 -240 Descending FlightAware
04:50AM 35.9290 140.3400 180° South 143 165 2,000  Level FlightAware
04:51AM 35.9040 140.3220 210° Southwest 2,100  Climbing FlightAware
04:52AM 35.8920 140.3210 184° South 118 136 2,000  Descending FlightAware
04:52AM 35.8790 140.3250 166° South 123 142 2,100 -360 Climbing FlightAware
04:53AM 35.8560 140.3410 151° Southeast 130 150 1,600 -900 Descending FlightAware
04:53AM 35.8370 140.3550 149° Southeast 144 166 1,100 -600 Descending FlightAware
04:54AM 35.8240 140.3640 151° Southeast 144 166 1,100  Level FlightAware